Weather at Goose River Airport [CLOSED]

Public forecast

Using degrees Celsius for public forecast. Weather courtesy of forecast.io.

Closest aviation weather report (METAR) to Goose River Airport

Closest report is Whitecourt Airport, 39.9 nm (74.0 km) SSE.

2024/03/01 02:00 (retrieved 13 minutes ago)

CYZU 010200Z 32009KT 15SM SCT020 OVC120 M12/M16 A2946 RMK SC4AC4 SLP038

Closest aviation forecast (TAF) to Goose River Airport

Forecast is more than 6 hours old.

Closest forecast is Whitecourt Airport, 39.9 nm (74.0 km) SSE.

2024/02/29 19:00 (retrieved 7 hours ago)

TAF CYZU 291841Z 2919/2923 30012G22KT P6SM SCT020 BKN080 TEMPO 2919/2923 P6SM -SN BKN020 OVC080 RMK NXT FCST BY 011400Z